Decoded Metar for KMIB (MINOT in ND, USA) (IATA:MIB) | Meteo·Mobile Aviation Weather
aviador You're here:

KMIB Decoded Metar

MINOT in ND, USA
Report Time2018-08-21 15:56:00
UTC Time2018-08-21 16:05:50
Flight Rules vfr VFR
WindCalm
Visibility9999 m
Phenomena:N/A
Clouds:N/A
Expected CloudBase > 4,800 ft AGL from Temp-Dew spread
CeilingNone
Temp19°C (ISA +7)
Dew Point07°C (46% RH)
AAT18.3°C
QNH1024 hPa
Density Alt2,293 ft
Elevation1,667 ft
Report Wrong Elevation
Raw Report
KMIB 211556Z AUTO 00000KT 10SM CLR 19/07 A3024 RMK AO2 SLP246
T01850070 $=

Extra information for KMIB:More info

Metar Taf Metar & Taf Last 4 Metars F.Rules Stats Wind Profile Meteogram Temp Stats Airport Information Weather charts Add Link Nearby VenuesMetar ALERT Operation Metar Decoded Social comments

AIRNAV info for KMIB